createdAt,value
2023-05-25T00:00:57.357Z,983.68
2023-05-25T00:01:42.259Z,983.65
2023-05-25T00:02:42.418Z,983.69
2023-05-25T00:03:42.599Z,983.63
2023-05-25T00:04:42.575Z,983.63
2023-05-25T00:05:42.756Z,983.68
2023-05-25T00:06:42.247Z,983.66
2023-05-25T00:07:42.222Z,983.64
2023-05-25T00:08:42.109Z,983.67
2023-05-25T00:09:42.119Z,983.68
2023-05-25T00:10:42.142Z,983.69
2023-05-25T00:11:42.097Z,983.71
2023-05-25T00:12:42.370Z,983.66
2023-05-25T00:13:42.101Z,983.69
2023-05-25T00:14:42.021Z,983.68
2023-05-25T00:15:42.403Z,983.70
2023-05-25T00:16:42.400Z,983.72
2023-05-25T00:17:42.231Z,983.70
2023-05-25T00:18:41.956Z,983.73
2023-05-25T00:19:41.936Z,983.69
2023-05-25T00:20:41.970Z,983.70
2023-05-25T00:21:42.100Z,983.69
2023-05-25T00:22:42.041Z,983.68
2023-05-25T00:23:41.888Z,983.68
2023-05-25T00:24:42.067Z,983.68
2023-05-25T00:25:42.034Z,983.66
2023-05-25T00:26:41.838Z,983.63
2023-05-25T00:27:41.950Z,983.58
2023-05-25T00:28:41.952Z,983.59
2023-05-25T00:29:41.822Z,983.66
2023-05-25T00:30:41.986Z,983.63
2023-05-25T00:31:41.822Z,983.63
2023-05-25T00:32:41.908Z,983.65
2023-05-25T00:33:41.786Z,983.66
2023-05-25T00:34:41.725Z,983.66
2023-05-25T00:35:41.861Z,983.63
2023-05-25T00:36:41.698Z,983.62
2023-05-25T00:37:41.795Z,983.60
2023-05-25T00:38:41.676Z,983.59
2023-05-25T00:39:41.788Z,983.58
2023-05-25T00:40:41.637Z,983.55
2023-05-25T00:41:41.841Z,983.59
2023-05-25T00:42:41.750Z,983.53
2023-05-25T00:43:41.597Z,983.53
2023-05-25T00:44:41.599Z,983.55
2023-05-25T00:45:41.701Z,983.55
2023-05-25T00:46:41.684Z,983.56
2023-05-25T00:47:41.900Z,983.56
2023-05-25T00:48:41.575Z,983.60
2023-05-25T00:49:41.531Z,983.52
2023-05-25T00:50:41.536Z,983.57
2023-05-25T00:51:41.494Z,983.52
2023-05-25T00:52:41.746Z,983.56
2023-05-25T00:53:41.489Z,983.52
2023-05-25T00:54:41.491Z,983.53
2023-05-25T00:55:41.599Z,983.43
2023-05-25T00:56:41.612Z,983.50
2023-05-25T00:57:41.469Z,983.51
2023-05-25T00:58:41.486Z,983.53
2023-05-25T00:59:41.533Z,983.47
2023-05-25T01:00:41.401Z,983.49
2023-05-25T01:01:41.486Z,983.55
2023-05-25T01:02:41.459Z,983.55
2023-05-25T01:03:41.663Z,983.58
2023-05-25T01:04:41.339Z,983.53
2023-05-25T01:05:41.516Z,983.59
2023-05-25T01:06:41.305Z,983.57
2023-05-25T01:07:41.585Z,983.57
2023-05-25T01:08:41.405Z,983.51
2023-05-25T01:09:41.468Z,983.55
2023-05-25T01:10:41.300Z,983.52
2023-05-25T01:11:41.213Z,983.53
2023-05-25T01:12:41.418Z,983.56
2023-05-25T01:13:41.289Z,983.59
2023-05-25T01:14:41.292Z,983.62
2023-05-25T01:15:41.833Z,983.61
2023-05-25T01:16:41.345Z,983.64
2023-05-25T01:17:41.165Z,983.62
2023-05-25T01:18:41.201Z,983.65
2023-05-25T01:19:41.190Z,983.65
2023-05-25T01:20:41.140Z,983.71
2023-05-25T01:21:41.252Z,983.70
2023-05-25T01:22:41.105Z,983.73
2023-05-25T01:23:41.265Z,983.77
2023-05-25T01:24:41.091Z,983.77
2023-05-25T01:25:41.328Z,983.80
2023-05-25T01:26:41.145Z,983.81
2023-05-25T01:27:41.003Z,983.81
2023-05-25T01:28:41.062Z,983.77
2023-05-25T01:29:41.174Z,983.81
2023-05-25T01:30:40.968Z,983.75
2023-05-25T01:31:41.582Z,983.79
2023-05-25T01:32:41.111Z,983.78
2023-05-25T01:33:41.149Z,983.77
2023-05-25T01:34:40.988Z,983.76
2023-05-25T01:35:41.609Z,983.79
2023-05-25T01:36:41.068Z,983.74
2023-05-25T01:37:40.870Z,983.78
2023-05-25T01:38:40.889Z,983.75
2023-05-25T01:39:40.896Z,983.75
2023-05-25T01:40:40.852Z,983.76
2023-05-25T01:41:40.931Z,983.74
2023-05-25T01:42:40.814Z,983.77
2023-05-25T01:43:40.929Z,983.79
2023-05-25T01:44:40.790Z,983.72
2023-05-25T01:45:40.768Z,983.76
2023-05-25T01:46:40.916Z,983.76
2023-05-25T01:47:40.887Z,983.75
2023-05-25T01:48:40.976Z,983.72
2023-05-25T01:49:40.729Z,983.69
2023-05-25T01:50:40.787Z,983.70
2023-05-25T01:51:40.827Z,983.67
2023-05-25T01:52:40.777Z,983.63
2023-05-25T01:53:40.675Z,983.65
2023-05-25T01:54:40.645Z,983.60
2023-05-25T01:55:40.623Z,983.59
2023-05-25T01:56:40.657Z,983.59
2023-05-25T01:57:40.914Z,983.62
2023-05-25T01:58:40.659Z,983.59
2023-05-25T01:59:40.574Z,983.55
2023-05-25T02:00:40.549Z,983.58
2023-05-25T02:01:40.631Z,983.56
2023-05-25T02:02:40.674Z,983.55
2023-05-25T02:03:40.545Z,983.55
2023-05-25T02:04:40.688Z,983.56
2023-05-25T02:05:40.512Z,983.53
2023-05-25T02:06:40.513Z,983.51
2023-05-25T02:07:40.579Z,983.48
2023-05-25T02:08:40.456Z,983.44
2023-05-25T02:09:40.507Z,983.48
2023-05-25T02:10:40.436Z,983.42
2023-05-25T02:11:40.617Z,983.47
2023-05-25T02:12:40.506Z,983.47
2023-05-25T02:13:40.577Z,983.46
2023-05-25T02:14:40.658Z,983.44
2023-05-25T02:15:40.550Z,983.45
2023-05-25T02:16:40.349Z,983.41
2023-05-25T02:17:40.644Z,983.47
2023-05-25T02:18:40.356Z,983.41
2023-05-25T02:19:40.319Z,983.44
2023-05-25T02:20:40.381Z,983.45
2023-05-25T02:21:40.486Z,983.49
2023-05-25T02:22:40.422Z,983.49
2023-05-25T02:23:40.273Z,983.47
2023-05-25T02:24:40.371Z,983.48
2023-05-25T02:25:40.619Z,983.48
2023-05-25T02:26:40.350Z,983.48
2023-05-25T02:27:40.340Z,983.49
2023-05-25T02:28:40.358Z,983.46
2023-05-25T02:29:40.201Z,983.54
2023-05-25T02:30:40.168Z,983.52
2023-05-25T02:31:40.251Z,983.53
2023-05-25T02:32:40.466Z,983.53
2023-05-25T02:33:40.199Z,983.55
2023-05-25T02:34:40.105Z,983.55
2023-05-25T02:35:40.204Z,983.51
2023-05-25T02:36:40.095Z,983.54
2023-05-25T02:37:40.127Z,983.51
2023-05-25T02:38:40.141Z,983.57
2023-05-25T02:39:40.178Z,983.50
2023-05-25T02:40:40.131Z,983.58
2023-05-25T02:41:40.044Z,983.55
2023-05-25T02:42:40.022Z,983.60
2023-05-25T02:43:40.121Z,983.62
2023-05-25T02:44:39.982Z,983.68
2023-05-25T02:45:39.951Z,983.63
2023-05-25T02:46:39.947Z,983.67
2023-05-25T02:47:39.990Z,983.67
2023-05-25T02:48:40.073Z,983.68
2023-05-25T02:49:39.919Z,983.66
2023-05-25T02:50:39.895Z,983.70
2023-05-25T02:51:39.898Z,983.71
2023-05-25T02:52:39.869Z,983.69
2023-05-25T02:53:39.873Z,983.66
2023-05-25T02:54:39.931Z,983.72
2023-05-25T02:55:39.882Z,983.69
2023-05-25T02:56:39.815Z,983.76
2023-05-25T02:57:39.987Z,983.77
2023-05-25T02:58:39.800Z,983.79
2023-05-25T02:59:39.972Z,983.84
2023-05-25T03:00:39.803Z,983.88
2023-05-25T03:01:39.877Z,983.88
2023-05-25T03:02:40.083Z,983.91
2023-05-25T03:03:39.752Z,983.93
2023-05-25T03:04:39.788Z,983.96
2023-05-25T03:05:39.862Z,983.96
2023-05-25T03:06:39.720Z,983.95
2023-05-25T03:07:39.674Z,983.95
2023-05-25T03:08:39.805Z,983.98
2023-05-25T03:09:39.704Z,983.89
2023-05-25T03:10:39.709Z,983.92
2023-05-25T03:11:39.874Z,983.94
2023-05-25T03:12:39.701Z,983.93
2023-05-25T03:13:39.867Z,983.96
2023-05-25T03:14:39.650Z,983.95
2023-05-25T03:15:39.663Z,983.93
2023-05-25T03:16:39.565Z,983.93
2023-05-25T03:17:39.628Z,983.88
2023-05-25T03:18:39.516Z,983.95
2023-05-25T03:19:39.665Z,983.91
2023-05-25T03:20:39.786Z,983.95
2023-05-25T03:21:39.547Z,983.97
2023-05-25T03:22:39.456Z,983.97
2023-05-25T03:23:39.563Z,983.93
2023-05-25T03:24:39.818Z,983.95
2023-05-25T03:25:39.428Z,983.97
2023-05-25T03:26:39.442Z,983.95
2023-05-25T03:27:39.547Z,983.92
2023-05-25T03:28:39.379Z,983.95
2023-05-25T03:29:39.483Z,983.93
2023-05-25T03:30:39.344Z,983.99
2023-05-25T03:31:39.368Z,984.00
2023-05-25T03:32:39.424Z,983.97
2023-05-25T03:33:39.556Z,984.01
2023-05-25T03:34:39.285Z,984.03
2023-05-25T03:35:39.331Z,983.99
2023-05-25T03:36:39.382Z,984.05
2023-05-25T03:37:39.245Z,984.03
2023-05-25T03:38:39.365Z,983.99
2023-05-25T03:39:39.209Z,984.05
2023-05-25T03:40:39.317Z,984.04
2023-05-25T03:41:39.188Z,984.00
2023-05-25T03:42:39.180Z,983.99
2023-05-25T03:43:39.200Z,984.07
2023-05-25T03:44:41.080Z,984.07
2023-05-25T03:45:39.283Z,984.00
2023-05-25T03:46:39.474Z,984.04
2023-05-25T03:47:39.231Z,983.98
2023-05-25T03:48:39.077Z,984.05
2023-05-25T03:49:39.220Z,984.03
2023-05-25T03:50:39.135Z,984.02
2023-05-25T03:51:39.198Z,984.07
2023-05-25T03:52:39.042Z,984.15
2023-05-25T03:53:39.016Z,984.07
2023-05-25T03:54:39.040Z,984.07
2023-05-25T03:55:39.014Z,984.09
2023-05-25T03:56:39.150Z,984.09
2023-05-25T03:57:39.002Z,984.09
2023-05-25T03:58:38.948Z,984.12
2023-05-25T03:59:38.940Z,984.10
2023-05-25T04:00:38.919Z,984.17
2023-05-25T04:01:39.289Z,984.10
2023-05-25T04:02:39.203Z,984.13
2023-05-25T04:03:39.044Z,984.11
2023-05-25T04:04:39.138Z,984.11
2023-05-25T04:05:38.865Z,984.12
2023-05-25T04:06:39.174Z,984.15
2023-05-25T04:07:39.171Z,984.10
2023-05-25T04:08:39.019Z,984.15
2023-05-25T04:09:38.851Z,984.23
2023-05-25T04:10:38.761Z,984.23
2023-05-25T04:11:38.860Z,984.20
2023-05-25T04:12:38.814Z,984.19
2023-05-25T04:13:39.097Z,984.24
2023-05-25T04:14:38.743Z,984.26
2023-05-25T04:15:38.754Z,984.22
2023-05-25T04:16:38.760Z,984.20
2023-05-25T04:17:39.627Z,984.16
2023-05-25T04:18:39.506Z,984.13
2023-05-25T04:19:38.727Z,984.24
2023-05-25T04:20:38.865Z,984.25
2023-05-25T04:21:38.632Z,984.24
2023-05-25T04:22:38.906Z,984.15
2023-05-25T04:23:38.990Z,984.21
2023-05-25T04:24:38.653Z,984.22
2023-05-25T04:25:38.694Z,984.27
2023-05-25T04:26:38.743Z,984.21
2023-05-25T04:27:38.577Z,984.27
2023-05-25T04:28:38.704Z,984.33
2023-05-25T04:29:38.647Z,984.21
2023-05-25T04:30:38.726Z,984.21
2023-05-25T04:31:38.579Z,984.20
2023-05-25T04:32:38.509Z,984.19
2023-05-25T04:33:38.664Z,984.21
2023-05-25T04:34:38.585Z,984.26
2023-05-25T04:35:38.708Z,984.23
2023-05-25T04:36:38.498Z,984.16
2023-05-25T04:37:38.585Z,984.18
2023-05-25T04:38:38.453Z,984.24
2023-05-25T04:39:38.541Z,984.18
2023-05-25T04:40:38.386Z,984.21
2023-05-25T04:41:38.608Z,984.20
2023-05-25T04:42:38.393Z,984.23
2023-05-25T04:43:43.855Z,984.22
2023-05-25T04:44:38.445Z,984.25
2023-05-25T04:45:38.637Z,984.26
2023-05-25T04:46:38.422Z,984.24
2023-05-25T04:47:38.375Z,984.23
2023-05-25T04:48:38.412Z,984.24
2023-05-25T04:49:38.588Z,984.25
2023-05-25T04:50:38.373Z,984.24
2023-05-25T04:51:38.281Z,984.25
2023-05-25T04:52:38.260Z,984.23
2023-05-25T04:53:38.255Z,984.25
2023-05-25T04:54:38.466Z,984.25
2023-05-25T04:55:38.315Z,984.26
2023-05-25T04:56:38.279Z,984.25
2023-05-25T04:57:38.186Z,984.20
2023-05-25T04:58:38.178Z,984.17
2023-05-25T04:59:38.175Z,984.21
2023-05-25T05:00:38.319Z,984.15
2023-05-25T05:01:38.428Z,984.21
2023-05-25T05:02:38.158Z,984.14
2023-05-25T05:03:38.333Z,984.23
2023-05-25T05:04:38.219Z,984.26
2023-05-25T05:05:38.367Z,984.32
2023-05-25T05:06:38.121Z,984.24
2023-05-25T05:07:38.262Z,984.25
2023-05-25T05:08:38.070Z,984.32
2023-05-25T05:09:38.017Z,984.34
2023-05-25T05:10:38.166Z,984.33
2023-05-25T05:11:38.009Z,984.31
2023-05-25T05:12:37.987Z,984.32
2023-05-25T05:13:38.032Z,984.34
2023-05-25T05:14:38.187Z,984.26
2023-05-25T05:15:38.031Z,984.28
2023-05-25T05:16:38.018Z,984.28
2023-05-25T05:17:37.930Z,984.36
2023-05-25T05:18:38.112Z,984.31
2023-05-25T05:19:37.950Z,984.36
2023-05-25T05:20:38.336Z,984.35
2023-05-25T05:21:37.962Z,984.29
2023-05-25T05:22:37.847Z,984.38
2023-05-25T05:23:38.088Z,984.38
2023-05-25T05:24:37.825Z,984.35
2023-05-25T05:25:37.825Z,984.40
2023-05-25T05:26:48.280Z,984.40
2023-05-25T05:27:37.969Z,984.42
2023-05-25T05:28:37.865Z,984.45
2023-05-25T05:29:38.036Z,984.47
2023-05-25T05:30:37.795Z,984.41
2023-05-25T05:31:38.103Z,984.45
2023-05-25T05:32:37.787Z,984.43
2023-05-25T05:33:37.838Z,984.45
2023-05-25T05:34:37.815Z,984.49
2023-05-25T05:35:37.736Z,984.48
2023-05-25T05:36:45.322Z,984.50
2023-05-25T05:37:37.651Z,984.46
2023-05-25T05:38:39.945Z,984.38
2023-05-25T05:39:37.624Z,984.49
2023-05-25T05:40:37.792Z,984.47
2023-05-25T05:41:37.638Z,984.47
2023-05-25T05:42:37.562Z,984.52
2023-05-25T05:43:37.663Z,984.53
2023-05-25T05:44:37.509Z,984.53
2023-05-25T05:45:37.629Z,984.60
2023-05-25T05:46:37.558Z,984.56
2023-05-25T05:47:37.580Z,984.58
2023-05-25T05:48:37.492Z,984.50
2023-05-25T05:49:37.823Z,984.54
2023-05-25T05:50:38.610Z,984.57
2023-05-25T05:51:37.456Z,984.55
2023-05-25T05:52:37.477Z,984.59
2023-05-25T05:53:37.658Z,984.57
2023-05-25T05:54:37.577Z,984.58
2023-05-25T05:55:37.504Z,984.56
2023-05-25T05:56:38.210Z,984.58
2023-05-25T05:57:37.362Z,984.56
2023-05-25T05:58:37.439Z,984.57
2023-05-25T05:59:37.427Z,984.66
2023-05-25T06:00:37.336Z,984.56
2023-05-25T06:01:37.357Z,984.53
2023-05-25T06:02:40.014Z,984.60
2023-05-25T06:03:37.467Z,984.65
2023-05-25T06:04:37.346Z,984.58
2023-05-25T06:05:37.324Z,984.61
2023-05-25T06:06:37.216Z,984.53
2023-05-25T06:07:37.214Z,984.52
2023-05-25T06:08:37.273Z,984.59
2023-05-25T06:09:37.315Z,984.56
2023-05-25T06:10:37.255Z,984.52
2023-05-25T06:11:37.283Z,984.58
2023-05-25T06:12:37.194Z,984.59
2023-05-25T06:13:37.321Z,984.54
2023-05-25T06:14:37.232Z,984.60
2023-05-25T06:15:37.314Z,984.62
2023-05-25T06:16:37.170Z,984.65
2023-05-25T06:17:37.128Z,984.65
2023-05-25T06:18:37.120Z,984.61
2023-05-25T06:19:37.154Z,984.65
2023-05-25T06:20:37.162Z,984.66
2023-05-25T06:21:37.045Z,984.60
2023-05-25T06:22:37.135Z,984.63
2023-05-25T06:23:37.116Z,984.68
2023-05-25T06:24:37.251Z,984.69
2023-05-25T06:25:37.007Z,984.70
2023-05-25T06:26:37.139Z,984.75
2023-05-25T06:27:37.046Z,984.70
2023-05-25T06:28:37.366Z,984.73
2023-05-25T06:29:37.097Z,984.72
2023-05-25T06:30:37.158Z,984.76
2023-05-25T06:31:37.043Z,984.75
2023-05-25T06:32:36.891Z,984.75
2023-05-25T06:33:36.994Z,984.83
2023-05-25T06:34:38.277Z,984.78
2023-05-25T06:35:36.850Z,984.81
2023-05-25T06:36:36.805Z,984.75
2023-05-25T06:37:36.958Z,984.81
2023-05-25T06:38:36.940Z,984.79
2023-05-25T06:39:37.092Z,984.83
2023-05-25T06:40:37.647Z,984.76
2023-05-25T06:41:37.012Z,984.80
2023-05-25T06:42:36.762Z,984.78
2023-05-25T06:43:37.106Z,984.82
2023-05-25T06:44:36.938Z,984.85
2023-05-25T06:45:36.707Z,984.88
2023-05-25T06:46:36.732Z,984.86
2023-05-25T06:47:36.718Z,984.82
2023-05-25T06:48:36.702Z,984.87
2023-05-25T06:49:36.773Z,984.87
2023-05-25T06:50:36.657Z,984.90
2023-05-25T06:51:36.660Z,984.84
2023-05-25T06:52:36.586Z,984.86
2023-05-25T06:53:36.604Z,984.93
2023-05-25T06:54:36.670Z,984.88
2023-05-25T06:55:36.593Z,984.82
2023-05-25T06:56:36.556Z,984.91
2023-05-25T06:57:36.636Z,984.86
2023-05-25T06:58:36.548Z,984.84
2023-05-25T06:59:36.794Z,984.87
2023-05-25T07:00:36.506Z,985.00
2023-05-25T07:01:36.807Z,984.98
2023-05-25T07:02:36.518Z,984.88
2023-05-25T07:03:36.677Z,984.98
2023-05-25T07:04:36.677Z,984.98
2023-05-25T07:05:36.428Z,984.94
2023-05-25T07:06:36.615Z,984.97
2023-05-25T07:07:36.468Z,985.03
2023-05-25T07:08:36.538Z,984.98
2023-05-25T07:09:36.764Z,984.95
2023-05-25T07:10:36.503Z,984.92
2023-05-25T07:11:36.470Z,984.95
2023-05-25T07:12:36.404Z,984.81
2023-05-25T07:13:36.468Z,984.86
2023-05-25T07:14:36.383Z,984.90
2023-05-25T07:15:36.386Z,984.87
2023-05-25T07:16:36.576Z,984.85
2023-05-25T07:17:36.541Z,984.89
2023-05-25T07:18:36.304Z,984.91
2023-05-25T07:19:36.320Z,985.00
2023-05-25T07:20:36.275Z,984.92
2023-05-25T07:21:36.260Z,985.00
2023-05-25T07:22:36.200Z,984.89
2023-05-25T07:23:36.186Z,984.89
2023-05-25T07:24:36.297Z,984.95
2023-05-25T07:25:36.376Z,984.83
2023-05-25T07:26:36.222Z,985.02
2023-05-25T07:27:36.198Z,984.95
2023-05-25T07:28:36.203Z,984.86
2023-05-25T07:29:36.219Z,984.93
2023-05-25T07:30:36.191Z,984.88
2023-05-25T07:31:36.142Z,984.94
2023-05-25T07:32:36.233Z,984.95
2023-05-25T07:33:36.168Z,984.99
2023-05-25T07:34:36.240Z,984.93
2023-05-25T07:35:36.083Z,984.98
2023-05-25T07:36:36.284Z,984.96
2023-05-25T07:37:36.146Z,985.00
2023-05-25T07:38:35.980Z,984.99
2023-05-25T07:39:35.986Z,985.01
2023-05-25T07:40:36.213Z,984.95
2023-05-25T07:41:36.040Z,985.07
2023-05-25T07:42:36.093Z,985.04
2023-05-25T07:43:35.927Z,985.06
2023-05-25T07:44:36.053Z,985.06
2023-05-25T07:45:35.910Z,985.05
2023-05-25T07:46:35.971Z,985.02
2023-05-25T07:47:36.157Z,984.95
2023-05-25T07:48:35.881Z,985.06
2023-05-25T07:49:35.862Z,985.06
2023-05-25T07:50:35.880Z,985.05
2023-05-25T07:51:36.158Z,985.11
2023-05-25T07:52:35.972Z,985.08
2023-05-25T07:53:35.944Z,985.10
2023-05-25T07:54:35.810Z,985.13
2023-05-25T07:55:35.793Z,985.08
2023-05-25T07:56:35.935Z,984.99
2023-05-25T07:57:35.893Z,985.05
2023-05-25T07:58:35.881Z,985.02
2023-05-25T07:59:35.751Z,985.09
2023-05-25T08:00:35.683Z,985.08
2023-05-25T08:01:35.704Z,985.02
2023-05-25T08:02:36.043Z,985.20
2023-05-25T08:03:48.122Z,985.15
2023-05-25T08:04:36.134Z,985.06
2023-05-25T08:05:35.657Z,985.11
2023-05-25T08:06:35.878Z,985.27
2023-05-25T08:07:35.840Z,985.19
2023-05-25T08:08:35.650Z,985.19
2023-05-25T08:09:35.679Z,985.22
2023-05-25T08:10:35.620Z,985.18
2023-05-25T08:11:35.704Z,985.19
2023-05-25T08:12:47.674Z,985.15
2023-05-25T08:13:35.848Z,985.18
2023-05-25T08:14:35.590Z,985.20
2023-05-25T08:15:35.491Z,985.12
2023-05-25T08:16:35.567Z,985.11
2023-05-25T08:17:35.745Z,985.13
2023-05-25T08:18:35.675Z,985.19
2023-05-25T08:19:35.730Z,985.18
2023-05-25T08:20:35.684Z,985.30
2023-05-25T08:21:35.407Z,985.20
2023-05-25T08:22:35.410Z,985.09
2023-05-25T08:23:35.475Z,985.15
2023-05-25T08:24:35.570Z,985.17
2023-05-25T08:25:35.650Z,985.11
2023-05-25T08:26:45.876Z,985.15
2023-05-25T08:27:36.218Z,985.19
2023-05-25T08:28:35.549Z,985.14
2023-05-25T08:29:35.400Z,985.22
2023-05-25T08:30:35.376Z,985.19
2023-05-25T08:31:35.558Z,985.17
2023-05-25T08:32:35.379Z,985.23
2023-05-25T08:33:35.408Z,985.23
2023-05-25T08:34:35.240Z,985.30
2023-05-25T08:35:35.401Z,985.19
2023-05-25T08:36:35.224Z,985.22
2023-05-25T08:37:35.389Z,985.26
2023-05-25T08:38:35.167Z,985.31
2023-05-25T08:39:35.203Z,985.22
2023-05-25T08:40:35.448Z,985.14
2023-05-25T08:41:35.419Z,985.28
2023-05-25T08:42:35.267Z,985.34
2023-05-25T08:43:35.109Z,985.33
2023-05-25T08:44:35.093Z,985.22
2023-05-25T08:45:37.077Z,985.28
2023-05-25T08:46:35.330Z,985.31
2023-05-25T08:47:35.087Z,985.26
2023-05-25T08:48:41.105Z,985.29
2023-05-25T08:49:35.094Z,985.28
2023-05-25T08:50:35.118Z,985.31
2023-05-25T08:51:35.074Z,985.38
2023-05-25T08:52:35.101Z,985.32
2023-05-25T08:53:34.997Z,985.25
2023-05-25T08:54:35.045Z,985.30
2023-05-25T08:55:35.066Z,985.39
2023-05-25T08:56:37.000Z,985.30
2023-05-25T08:57:35.024Z,985.35
2023-05-25T08:58:35.011Z,985.32
2023-05-25T08:59:34.905Z,985.33
2023-05-25T09:00:34.891Z,985.40
2023-05-25T09:01:34.954Z,985.29
2023-05-25T09:02:35.073Z,985.32
2023-05-25T09:03:35.030Z,985.29
2023-05-25T09:04:34.943Z,985.27
2023-05-25T09:05:36.860Z,985.35
2023-05-25T09:06:34.798Z,985.32
2023-05-25T09:07:34.862Z,985.33
2023-05-25T09:08:34.880Z,985.38
2023-05-25T09:09:34.811Z,985.31
2023-05-25T09:10:34.872Z,985.37
2023-05-25T09:11:39.765Z,985.32
2023-05-25T09:12:35.051Z,985.34
2023-05-25T09:13:34.732Z,985.42
2023-05-25T09:14:34.715Z,985.37
2023-05-25T09:15:34.740Z,985.46
2023-05-25T09:16:34.974Z,985.38
2023-05-25T09:17:38.046Z,985.30
2023-05-25T09:18:35.029Z,985.38
2023-05-25T09:19:34.743Z,985.28
2023-05-25T09:20:34.779Z,985.32
2023-05-25T09:21:34.775Z,985.31
2023-05-25T09:22:34.731Z,985.33
2023-05-25T09:23:34.587Z,985.33
2023-05-25T09:24:34.722Z,985.32
2023-05-25T09:25:34.748Z,985.28
2023-05-25T09:26:34.547Z,985.35
2023-05-25T09:27:34.845Z,985.37
2023-05-25T09:28:34.598Z,985.35
2023-05-25T09:29:34.506Z,985.30
2023-05-25T09:30:34.583Z,985.41
2023-05-25T09:31:34.497Z,985.29
2023-05-25T09:32:34.804Z,985.27
2023-05-25T09:33:36.246Z,985.27
2023-05-25T09:34:34.450Z,985.23
2023-05-25T09:35:34.392Z,985.32
2023-05-25T09:36:34.684Z,985.33
2023-05-25T09:37:34.678Z,985.34
2023-05-25T09:38:34.585Z,985.31
2023-05-25T09:39:34.582Z,985.29
2023-05-25T09:40:34.676Z,985.23
2023-05-25T09:41:34.440Z,985.26
2023-05-25T09:42:34.940Z,985.21
2023-05-25T09:43:44.703Z,985.30
2023-05-25T09:44:34.395Z,985.29
2023-05-25T09:45:35.991Z,985.27
2023-05-25T09:46:34.334Z,985.31
2023-05-25T09:47:34.450Z,985.35
2023-05-25T09:48:34.380Z,985.30
2023-05-25T09:49:34.415Z,985.34
2023-05-25T09:50:34.365Z,985.17
2023-05-25T09:51:34.531Z,985.32
2023-05-25T09:52:34.318Z,985.26
2023-05-25T09:53:34.284Z,985.32
2023-05-25T09:54:34.282Z,985.33
2023-05-25T09:55:51.577Z,985.27
2023-05-25T09:56:34.278Z,985.31
2023-05-25T09:57:34.120Z,985.30
2023-05-25T09:58:34.218Z,985.22
2023-05-25T09:59:34.174Z,985.29
2023-05-25T10:00:34.290Z,985.32
2023-05-25T10:01:34.206Z,985.25
2023-05-25T10:02:34.103Z,985.20
2023-05-25T10:03:34.242Z,985.28
2023-05-25T10:04:34.038Z,985.28
2023-05-25T10:05:34.101Z,985.21
2023-05-25T10:06:34.059Z,985.20
2023-05-25T10:07:34.169Z,985.17
2023-05-25T10:08:34.093Z,985.17
2023-05-25T10:09:34.255Z,985.27
2023-05-25T10:10:34.022Z,985.20
2023-05-25T10:11:34.122Z,985.24
2023-05-25T10:12:33.953Z,985.25
2023-05-25T10:13:34.205Z,985.21
2023-05-25T10:14:34.009Z,985.22
2023-05-25T10:15:34.104Z,985.23
2023-05-25T10:16:33.952Z,985.25
2023-05-25T10:17:33.891Z,985.21
2023-05-25T10:18:34.111Z,985.17
2023-05-25T10:19:33.932Z,985.20
2023-05-25T10:20:37.159Z,985.16
2023-05-25T10:21:33.816Z,985.13
2023-05-25T10:22:34.006Z,985.20
2023-05-25T10:23:33.787Z,985.08
2023-05-25T10:24:33.860Z,984.99
2023-05-25T10:25:33.760Z,985.02
2023-05-25T10:26:33.972Z,985.03
2023-05-25T10:27:33.811Z,985.00
2023-05-25T10:28:33.726Z,985.05
2023-05-25T10:29:33.792Z,985.05
2023-05-25T10:30:33.686Z,985.00
2023-05-25T10:31:33.858Z,985.00
2023-05-25T10:32:33.716Z,984.97
2023-05-25T10:33:33.857Z,985.06
2023-05-25T10:34:33.699Z,985.01
2023-05-25T10:35:46.671Z,985.04
2023-05-25T10:36:33.649Z,985.01
2023-05-25T10:37:34.251Z,985.01
2023-05-25T10:38:34.262Z,984.98
2023-05-25T10:39:34.982Z,984.97
2023-05-25T10:40:34.312Z,985.08
2023-05-25T10:41:34.624Z,985.02
2023-05-25T10:42:34.620Z,985.04
2023-05-25T10:43:34.266Z,985.09
2023-05-25T10:44:34.917Z,985.06
2023-05-25T10:45:34.877Z,984.97
2023-05-25T10:46:33.674Z,985.00
2023-05-25T10:47:33.895Z,984.98
2023-05-25T10:48:33.613Z,984.93
2023-05-25T10:49:33.609Z,984.99
2023-05-25T10:50:33.437Z,984.98
2023-05-25T10:51:33.771Z,984.98
2023-05-25T10:52:33.383Z,984.95
2023-05-25T10:53:33.512Z,984.98
2023-05-25T10:54:33.764Z,984.94
2023-05-25T10:55:33.476Z,984.85
2023-05-25T10:56:33.383Z,984.85
2023-05-25T10:57:33.329Z,984.84
2023-05-25T10:58:33.341Z,984.82
2023-05-25T10:59:33.453Z,984.82
2023-05-25T11:00:33.416Z,984.79
2023-05-25T11:01:33.876Z,984.78
2023-05-25T11:02:33.464Z,984.81
2023-05-25T11:03:33.475Z,984.74
2023-05-25T11:04:33.350Z,984.74
2023-05-25T11:05:33.581Z,984.80
2023-05-25T11:06:33.299Z,984.77
2023-05-25T11:07:33.230Z,984.77
2023-05-25T11:08:33.306Z,984.77
2023-05-25T11:09:33.501Z,984.73
2023-05-25T11:10:33.424Z,984.78
2023-05-25T11:11:33.164Z,984.73
2023-05-25T11:12:33.326Z,984.77
2023-05-25T11:13:33.734Z,984.78
2023-05-25T11:14:33.287Z,984.77
2023-05-25T11:15:33.353Z,984.74
2023-05-25T11:16:33.139Z,984.79
2023-05-25T11:17:33.144Z,984.77
2023-05-25T11:18:33.117Z,984.70
2023-05-25T11:19:33.168Z,984.66
2023-05-25T11:20:33.197Z,984.60
2023-05-25T11:21:33.157Z,984.74
2023-05-25T11:22:32.993Z,984.66
2023-05-25T11:23:32.999Z,984.66
2023-05-25T11:24:33.113Z,984.65
2023-05-25T11:25:34.756Z,984.62
2023-05-25T11:26:33.005Z,984.64
2023-05-25T11:27:33.186Z,984.61
2023-05-25T11:28:32.989Z,984.57
2023-05-25T11:29:32.983Z,984.60
2023-05-25T11:30:33.141Z,984.60
2023-05-25T11:31:38.815Z,984.52
2023-05-25T11:32:33.021Z,984.49
2023-05-25T11:33:32.874Z,984.51
2023-05-25T11:34:32.884Z,984.47
2023-05-25T11:35:32.841Z,984.46
2023-05-25T11:36:33.104Z,984.52
2023-05-25T11:37:32.825Z,984.49
2023-05-25T11:38:32.999Z,984.50
2023-05-25T11:39:32.875Z,984.50
2023-05-25T11:40:33.367Z,984.37
2023-05-25T11:41:32.954Z,984.41
2023-05-25T11:42:33.040Z,984.43
2023-05-25T11:43:32.854Z,984.38
2023-05-25T11:44:32.741Z,984.41
2023-05-25T11:45:32.705Z,984.40
2023-05-25T11:46:33.017Z,984.40
2023-05-25T11:47:34.633Z,984.46
2023-05-25T11:48:32.732Z,984.39
2023-05-25T11:49:32.624Z,984.48
2023-05-25T11:50:32.717Z,984.42
2023-05-25T11:51:32.700Z,984.39
2023-05-25T11:52:32.796Z,984.42
2023-05-25T11:53:34.336Z,984.38
2023-05-25T11:54:32.756Z,984.37
2023-05-25T11:55:32.855Z,984.32
2023-05-25T11:56:35.472Z,984.34
2023-05-25T11:57:32.721Z,984.42
2023-05-25T11:58:32.562Z,984.42
2023-05-25T11:59:32.854Z,984.33
2023-05-25T12:00:32.678Z,984.38
2023-05-25T12:01:32.505Z,984.34
2023-05-25T12:02:32.635Z,984.31
2023-05-25T12:03:32.627Z,984.37
2023-05-25T12:04:32.635Z,984.38
2023-05-25T12:05:32.578Z,984.38
2023-05-25T12:06:32.541Z,984.42
2023-05-25T12:07:32.693Z,984.38
2023-05-25T12:08:32.769Z,984.36
2023-05-25T12:09:32.405Z,984.40
2023-05-25T12:10:32.467Z,984.30
2023-05-25T12:11:32.358Z,984.34
2023-05-25T12:12:32.553Z,984.26
2023-05-25T12:13:32.345Z,984.26
2023-05-25T12:14:32.299Z,984.22
2023-05-25T12:15:32.294Z,984.24
2023-05-25T12:16:32.518Z,984.18
2023-05-25T12:17:32.450Z,984.21
2023-05-25T12:18:32.380Z,984.12
2023-05-25T12:19:32.506Z,984.16
2023-05-25T12:20:32.406Z,984.11
2023-05-25T12:21:32.253Z,984.08
2023-05-25T12:22:32.350Z,984.08
2023-05-25T12:23:32.289Z,984.15
2023-05-25T12:24:32.180Z,984.08
2023-05-25T12:25:46.618Z,984.07
2023-05-25T12:26:32.360Z,984.15
2023-05-25T12:27:32.184Z,984.08
2023-05-25T12:28:32.255Z,984.06